Ergebnisliste vom: 22.03.2015 - Lauf um die R÷deraue2015 - 13 km

weitere Ergebnisse >>

Platz Pl.m Pl.w Stnr. Name,Vorname Verein GJ AK Akm AKw Endzeit RŘckstand
1 1   1 Thieme, Holger SC Riesa 72 M40 1   0:47:56 0:00:00
2 2   70 G├Âhler, Niels SV Elbland Coswig Mei├čen 76 M35 1   0:48:09 0:00:13
3 3   31 Goldbach, Thomas   83 M30 1   0:49:39 0:01:43
4 4   7 Sch├╝tzka, Georg LG TuS Weinb├Âhla 86 M20 1   0:50:03 0:02:07
5 5   49 Schwarzer, Roland Katzengebirgsl├Ąufer 85 M30 2   0:50:28 0:02:32
6 6   30 Scholtz, J├Ârg Zeithain 64 M50 1   0:51:11 0:03:15
7 7   73 Hain, Hagen Coswig 74 M40 2   0:51:17 0:03:21
8 8   8 Pohl, Roland Weinb├Âhla 66 M45 1   0:51:22 0:03:26
9 9   11 Kretzschmar, Achim Holzhandel Ganzig 67 M45 2   0:51:29 0:03:33
10 10   29 Wolf, Daniel LG Priestewitz 74 M40 3   0:51:33 0:03:37
11 11   43 Wittwer, Frank Dresden 68 M45 3   0:52:25 0:04:29
12 12   4 Schwan, Ralph atsv kirchseeon (by) 65 M50 2   0:53:19 0:05:23
13 13   22 Sch├Ąfer, J├Ârg per pedes family Dresden 67 M45 4   0:54:07 0:06:11
14 14   79 Zeiske, Enrico Gro├čenhain 77 M35 2   0:55:14 0:07:18
15 15   62 Wolf, Stefan LG Priestewitz 86 M20 2   0:55:45 0:07:49
16 16   35 Umlauf, Steffen SV Hellerau 61 M50 3   0:55:46 0:07:50
17 17   44 Schliwa, Sebastian Team Tempus/SV Elbland Coswig Mei├čen 83 M30 3   0:55:47 0:07:51
18 18   42 Junghanns, Mario D├Âbelner SV Vorw├Ąrts 65 M50 4   0:55:58 0:08:02
19 19   25 Stich, Nicolas SV Elbland Coswig Mei├čen 99 mU18 1   0:56:16 0:08:20
20 20   89 H├Ąu├čler, Norman   97 mU20 1   0:56:58 0:09:02
21 21   72 Mutzke, Thomas Wei├čig a. Rasch├╝tz 75 M40 4   0:57:02 0:09:06
22 22   69 Berger, Victor TuS Coswig 53 M60+ 1   0:57:17 0:09:21
23   1 13 Rose, Elfi SV Traktor Naundorf 66 W45   1 0:57:31 0:09:35
24 23   39 Dewitz, Heiko ESV Lok D├Âbeln 64 M50 5   0:57:37 0:09:41
25 24   45 Bormann, Markus LWV 05 Bad Liebenwerda 80 M35 3   0:57:41 0:09:45
26 25   86 von Klass, Benjamin   79 M35 4   0:57:57 0:10:01
27 26   34 Kuschmierz, Heiko FV Zabeltitz 70 M45 5   0:57:59 0:10:03
28 27   50 Otto, Andreas SV Elbland Coswig Mei├čen 76 M35 5   0:58:01 0:10:05
29 28   68 Giebler, Andre LG TuS Weinb├Âhla 60 M55 1   0:58:04 0:10:08
30   2 26 Stich, Grit Radebeul 70 W45   2 0:58:09 0:10:13
31 29   54 Kn├Âfel, Detlef Mei├čen 63 M50 6   0:58:27 0:10:31
32   3 23 Lehmann, Birgit BSV Chemie Radebeul 64 W50+   1 0:58:39 0:10:43
33 30   24 Schwan, Gunnar SV Elbland Coswig Mei├čen 65 M50 7   0:59:12 0:11:16
34 31   2 Heyer, Ulrich Chemnitz 53 M60+ 2   0:59:20 0:11:24
35 32   17 Pospisil, Joachim Laufgruppe Nossen 58 M55 2   0:59:27 0:11:31
36 33   36 G├Âtzelt, Jan SV Hellerau 71 M40 5   0:59:32 0:11:36
37 34   3 Werner, Enrico Coswig 79 M35 6   0:59:40 0:11:44
38   4 57 M├╝nch, Kristin SV Elbland Coswig Mei├čen 84 W30   1 0:59:50 0:11:54
39 35   58 Richter, Florian SV Motor Gro├čenhain 94 M20 3   0:59:57 0:12:01
40 36   41 Alexander, Frank D├Âbelner SV Vorw├Ąrts 59 M55 3   1:00:23 0:12:27
41 37   28 R├Âsch, Carsten Mei├čen 69 M45 6   1:00:26 0:12:30
42 38   9 Schwitalla, Dietmar SC Riesa 56 M55 4   1:00:27 0:12:31
43   5 38 Dewitz, Silke ESV Lok D├Âbeln 67 W45   3 1:00:39 0:12:43
43 39   78 Becker, Heiko Strehla 68 M45 7   1:00:39 0:12:43
45 40   40 Zielke, Frank Wacker Laufgruppe 69 M45 8   1:01:05 0:13:09
46 41   6 Noack gen. Gr├Ąfe, Stefan LG TuS Weinb├Âhla 79 M35 7   1:01:11 0:13:15
47   6 81 Gittel, Juliane Lauftreff Wacker Chemie AG 79 W35   1 1:01:23 0:13:27
48 42   60 B├Ąnsch, Rene Lommatzsch 80 M35 8   1:01:59 0:14:03
49 43   53 Giebler, Steffen Roda 72 M40 6   1:02:16 0:14:20
50   7 27 Wegner-Drichelt, Conni Mei├čen 74 W40   1 1:03:13 0:15:17
51 44   14 Vogel, Dieter Laufgruppe Nossen 65 M50 8   1:03:28 0:15:32
52 45   15 Bransch, Ulli Laufgruppe Nossen 84 M30 4   1:03:40 0:15:44
53 46   71 Noppes, Ralf SV Nordwind Naund├Ârfel 76 M35 9   1:03:55 0:15:59
54 47   63 Falkenthal, Frank Gro├čenhain 73 M40 7   1:04:08 0:16:12
55 48   74 Krille, Steffen SV Wildenhain 63 M50 9   1:04:11 0:16:15
56 49   47 Brandt, Remo Laufgruppe Wacker N├╝nchritz 70 M45 9   1:04:18 0:16:22
57 50   76 Henschke, Martin Alte Garde Weinb├Âhla 80 M35 10   1:04:54 0:16:58
58   8 55 Zange, Andrea Mei├čen 62 W50+   2 1:05:05 0:17:09
59 51   61 R├╝hle, Frank Lichtensee 71 M40 8   1:05:07 0:17:11
60   9 87 Kaiser, Susann FV Zabeltitz 76 W35   2 1:05:17 0:17:21
61 52   32 Illige, Uwe Riesa 65 M50 10   1:06:04 0:18:08
62 53   65 Schmidt, Daniel Real Egal Radeburg 80 M35 11   1:06:15 0:18:19
63 54   48 Brucksch, Tilo Peritz 71 M40 9   1:06:44 0:18:48
64 55   21 M├╝ller, Uwe Leisnig 70 M45 10   1:07:27 0:19:31
65 56   84 Goldbach, Thomas FV Gr├Âditz 1911 72 M40 10   1:07:41 0:19:45
66 57   5 Klenke, Michael Gohlis 64 M50 11   1:08:14 0:20:18
67 58   52 K├Âhler, Matthias Gr├Âditzer TC 1990 58 M55 5   1:08:22 0:20:26
68   10 10 Primus, Heike SC Riesa 62 W50+   3 1:09:05 0:21:09
69 59   277 Tille, Peter Gro├čenhain 58 M55 6   1:09:28 0:21:32
70   11 59 Hofmann, Katrin TSV Dresden 67 W45   4 1:09:30 0:21:34
71   12 16 Zabell, Nadja Luppa 67 W45   5 1:09:51 0:21:55
72 60   33 B├Ąnsch, Gerd Laufgruppe Nossen 73 M40 11   1:11:30 0:23:34
73 61   83 Raschke, Alexander Gro├čenhain 87 M20 4   1:12:37 0:24:41
74   13 88 Berge, Anett Riesa 64 W50+   4 1:12:47 0:24:51
75   14 51 M├╝ller, Michaela TV-Frisch Auf-Mei├čen 72 W40   2 1:12:53 0:24:57
76   15 75 Krille, Sabine SV Wildenhain 62 W50+   5 1:13:12 0:25:16
77   16 80 H├Ąu├čler, Ines Gro├čenhain 68 W45   6 1:14:13 0:26:17
78   17 66 Geppert, Kathrin SV Merzdorf Gr├Âden 64 W50+   6 1:14:37 0:26:41
79 62   67 Gruhn, Udo SV Merzdorf-Gr├Âden 63 M50 12   1:14:38 0:26:42
80   18 77 Hammer, Ines Strehla 70 W45   7 1:18:20 0:30:24
81   19 85 Strau├č, Manja Sportfreunde Ottendorf-Okrilla 74 W40   3 1:18:22 0:30:26
82 63   64 Eisemuth, Sandro SV Lampertswalde 81 M30 5   1:18:29 0:30:33
83 64   19 Lehmkuhle, Hans-J├╝rgen Gro├čenhain 51 M60+ 3   1:18:36 0:30:40
84   20 20 Hoffbauer, Katja SC Riesa 77 W35   3 1:19:08 0:31:12
85   21 18 Kneschke, Uta SC Riesa 62 W50+   7 1:23:12 0:35:16
86   22 46 Beger, Angela Coswig 79 W35   4 1:38:02 0:50:06
(c) 1990-2020 Blue Wonder Sport Promotion - Andreas Burow - Zeitnahme & Auswertung - www.Triathlon-Service.de